createdAt,value
2019-05-22T00:01:13.279Z,101629.70
2019-05-22T00:03:47.193Z,101631.95
2019-05-22T00:06:18.491Z,101630.16
2019-05-22T00:08:49.945Z,101629.64
2019-05-22T00:11:21.706Z,101631.84
2019-05-22T00:13:51.513Z,101638.45
2019-05-22T00:16:22.115Z,101631.02
2019-05-22T00:18:52.478Z,101633.20
2019-05-22T00:21:22.595Z,101631.45
2019-05-22T00:23:52.473Z,101629.28
2019-05-22T00:26:23.390Z,101632.76
2019-05-22T00:28:53.988Z,101627.02
2019-05-22T00:31:23.329Z,101629.16
2019-05-22T00:33:55.439Z,101632.20
2019-05-22T00:36:24.852Z,101636.58
2019-05-22T00:38:55.827Z,101638.77
2019-05-22T00:41:26.884Z,101639.16
2019-05-22T00:43:56.296Z,101640.47
2019-05-22T00:46:25.911Z,101636.53
2019-05-22T00:48:55.313Z,101641.77
2019-05-22T00:51:30.943Z,101642.08
2019-05-22T00:54:03.492Z,101640.28
2019-05-22T00:56:34.483Z,101645.95
2019-05-22T00:59:11.081Z,101651.66
2019-05-22T01:01:45.434Z,101655.64
2019-05-22T01:04:16.418Z,101645.09
2019-05-22T01:06:47.667Z,101649.78
2019-05-22T01:09:34.319Z,101653.38
2019-05-22T01:12:03.998Z,101661.70
2019-05-22T01:14:42.985Z,101661.66
2019-05-22T01:17:08.111Z,101662.03
2019-05-22T01:19:39.096Z,101660.78
2019-05-22T01:22:10.259Z,101660.77
2019-05-22T01:24:41.566Z,101672.02
2019-05-22T01:27:12.676Z,101676.08
2019-05-22T01:29:43.981Z,101673.81
2019-05-22T01:32:16.125Z,101668.45
2019-05-22T01:34:45.741Z,101676.38
2019-05-22T01:37:15.951Z,101675.88
2019-05-22T01:39:55.836Z,101683.75
2019-05-22T01:42:30.342Z,101678.08
2019-05-22T01:45:06.209Z,101676.81
2019-05-22T01:47:49.049Z,101685.14
2019-05-22T01:50:29.020Z,101689.88
2019-05-22T01:52:58.444Z,101692.48
2019-05-22T01:55:27.782Z,101688.48
2019-05-22T01:57:58.165Z,101691.05
2019-05-22T02:00:28.121Z,101683.98
2019-05-22T02:02:58.085Z,101690.61
2019-05-22T02:05:28.487Z,101689.73
2019-05-22T02:07:59.223Z,101687.92
2019-05-22T02:10:38.338Z,101687.04
2019-05-22T02:13:11.202Z,101696.20
2019-05-22T02:15:41.521Z,101692.78
2019-05-22T02:18:17.913Z,101694.03
2019-05-22T02:20:48.138Z,101699.73
2019-05-22T02:23:17.952Z,101691.34
2019-05-22T02:25:47.666Z,101697.52
2019-05-22T02:28:18.506Z,101700.08
2019-05-22T02:30:48.496Z,101701.70
2019-05-22T02:33:22.146Z,101699.13
2019-05-22T02:35:51.510Z,101704.37
2019-05-22T02:38:21.169Z,101711.37
2019-05-22T02:40:53.185Z,101709.62
2019-05-22T02:43:24.550Z,101706.05
2019-05-22T02:45:53.891Z,101711.30
2019-05-22T02:48:25.671Z,101714.83
2019-05-22T02:50:57.015Z,101714.79
2019-05-22T02:53:27.624Z,101725.71
2019-05-22T02:55:57.430Z,101719.55
2019-05-22T02:58:28.795Z,101723.98
2019-05-22T03:01:02.544Z,101729.36
2019-05-22T03:03:33.578Z,101728.44
2019-05-22T03:06:05.642Z,101734.91
2019-05-22T03:08:58.197Z,101735.29
2019-05-22T03:11:37.380Z,101738.84
2019-05-22T03:14:09.193Z,101734.46
2019-05-22T03:16:57.926Z,101730.98
2019-05-22T03:19:43.779Z,101740.95
2019-05-22T03:22:34.592Z,101742.18
2019-05-22T03:25:08.090Z,101735.29
2019-05-22T03:27:39.953Z,101739.70
2019-05-22T03:30:21.296Z,101743.59
2019-05-22T03:32:52.102Z,101741.40
2019-05-22T03:35:24.628Z,101744.02
2019-05-22T03:37:56.476Z,101749.34
2019-05-22T03:40:28.751Z,101742.33
2019-05-22T03:42:59.765Z,101746.71
2019-05-22T03:45:31.048Z,101751.51
2019-05-22T03:48:03.767Z,101757.63
2019-05-22T03:50:33.484Z,101753.65
2019-05-22T03:53:08.499Z,101755.44
2019-05-22T03:55:38.119Z,101757.63
2019-05-22T03:58:07.458Z,101758.96
2019-05-22T04:00:42.926Z,101757.66
2019-05-22T04:03:09.811Z,101758.58
2019-05-22T04:05:39.240Z,101759.81
2019-05-22T04:08:10.883Z,101764.94
2019-05-22T04:11:02.615Z,101761.78
2019-05-22T04:13:33.177Z,101764.98
2019-05-22T04:16:05.603Z,101767.18
2019-05-22T04:18:35.833Z,101764.11
2019-05-22T04:21:05.815Z,101772.01
2019-05-22T04:23:35.939Z,101765.94
2019-05-22T04:26:08.960Z,101767.77
2019-05-22T04:28:41.339Z,101773.81
2019-05-22T04:31:10.750Z,101775.56
2019-05-22T04:33:40.082Z,101778.12
2019-05-22T04:36:10.497Z,101777.23
2019-05-22T04:38:40.950Z,101779.43
2019-05-22T04:41:10.378Z,101786.05
2019-05-22T04:43:40.085Z,101779.13
2019-05-22T04:46:11.512Z,101790.13
2019-05-22T04:48:45.809Z,101792.59
2019-05-22T04:51:26.313Z,101794.42
2019-05-22T04:53:57.551Z,101797.56
2019-05-22T04:56:28.201Z,101791.44
2019-05-22T04:58:58.580Z,101795.81
2019-05-22T05:01:28.393Z,101792.75
2019-05-22T05:03:58.837Z,101796.20
2019-05-22T05:06:29.807Z,101798.82
2019-05-22T05:08:59.486Z,101801.52
2019-05-22T05:11:28.961Z,101805.95
2019-05-22T05:13:58.367Z,101806.24
2019-05-22T05:16:27.761Z,101805.38
2019-05-22T05:18:57.163Z,101807.58
2019-05-22T05:21:26.903Z,101814.99
2019-05-22T05:23:56.595Z,101815.42
2019-05-22T05:26:26.748Z,101815.42
2019-05-22T05:28:56.222Z,101815.94
2019-05-22T05:31:25.643Z,101819.79
2019-05-22T05:34:13.060Z,101815.50
2019-05-22T05:36:42.797Z,101810.72
2019-05-22T05:39:37.702Z,101815.94
2019-05-22T05:42:07.107Z,101819.45
2019-05-22T05:44:36.526Z,101823.95
2019-05-22T05:47:07.381Z,101823.53
2019-05-22T05:49:36.714Z,101827.47
2019-05-22T05:52:09.120Z,101824.74
2019-05-22T05:54:39.474Z,101824.69
2019-05-22T05:57:35.502Z,101833.52
2019-05-22T06:00:09.191Z,101833.58
2019-05-22T06:02:37.955Z,101830.89
2019-05-22T06:05:09.576Z,101830.91
2019-05-22T06:07:39.394Z,101838.83
2019-05-22T06:10:20.499Z,101837.97
2019-05-22T06:12:50.494Z,101831.06
2019-05-22T06:15:20.559Z,101843.87
2019-05-22T06:18:27.741Z,101850.73
2019-05-22T06:21:03.747Z,101846.92
2019-05-22T06:23:32.616Z,101849.42
2019-05-22T06:26:04.779Z,101854.36
2019-05-22T06:28:38.345Z,101857.87
2019-05-22T06:31:11.193Z,101858.68
2019-05-22T06:33:40.536Z,101865.38
2019-05-22T06:36:12.876Z,101860.51
2019-05-22T06:38:59.682Z,101867.14
2019-05-22T06:41:32.861Z,101867.56
2019-05-22T06:44:30.243Z,101864.53
2019-05-22T06:47:00.647Z,101863.80
2019-05-22T06:49:36.268Z,101866.48
2019-05-22T06:52:09.476Z,101866.06
2019-05-22T06:54:39.320Z,101866.06
2019-05-22T06:57:12.263Z,101867.44
2019-05-22T06:59:43.436Z,101869.27
2019-05-22T07:02:14.812Z,101878.60
2019-05-22T07:04:44.859Z,101874.23
2019-05-22T07:07:15.897Z,101875.61
2019-05-22T07:09:46.345Z,101875.13
2019-05-22T07:12:19.988Z,101883.07
2019-05-22T07:14:50.539Z,101888.32
2019-05-22T07:17:22.150Z,101883.59
2019-05-22T07:19:52.045Z,101883.15
2019-05-22T07:22:22.021Z,101886.34
2019-05-22T07:24:51.620Z,101889.98
2019-05-22T07:27:26.849Z,101884.30
2019-05-22T07:29:57.056Z,101890.00
2019-05-22T07:32:30.532Z,101885.98
2019-05-22T07:34:57.654Z,101894.31
2019-05-22T07:37:26.991Z,101891.81
2019-05-22T07:39:56.457Z,101891.01
2019-05-22T07:42:26.117Z,101894.23
2019-05-22T07:44:55.454Z,101890.33
2019-05-22T07:47:26.127Z,101892.64
2019-05-22T07:49:55.691Z,101897.53
2019-05-22T07:52:25.551Z,101895.84
2019-05-22T07:54:55.592Z,101901.27
2019-05-22T07:57:27.106Z,101894.34
2019-05-22T07:59:56.714Z,101900.55
2019-05-22T08:02:29.778Z,101897.09
2019-05-22T08:05:01.231Z,101898.09
2019-05-22T08:07:35.002Z,101898.98
2019-05-22T08:10:07.809Z,101896.08
2019-05-22T08:12:38.163Z,101901.03
2019-05-22T08:15:08.841Z,101891.44
2019-05-22T08:17:38.356Z,101896.25
2019-05-22T08:20:07.765Z,101894.13
2019-05-22T08:22:38.940Z,101895.11
2019-05-22T08:25:09.250Z,101902.25
2019-05-22T08:27:39.328Z,101896.27
2019-05-22T08:30:10.014Z,101892.81
2019-05-22T08:32:40.387Z,101895.50
2019-05-22T08:35:11.751Z,101898.66
2019-05-22T08:37:42.935Z,101903.98
2019-05-22T08:40:16.303Z,101902.84
2019-05-22T08:42:46.397Z,101903.38
2019-05-22T08:45:18.673Z,101902.59
2019-05-22T08:47:48.195Z,101904.87
2019-05-22T08:50:20.010Z,101907.95
2019-05-22T08:52:49.513Z,101914.58
2019-05-22T08:55:18.925Z,101899.78
2019-05-22T08:57:48.361Z,101903.41
2019-05-22T09:00:19.865Z,101905.65
2019-05-22T09:02:50.922Z,101913.16
2019-05-22T09:05:21.794Z,101907.08
2019-05-22T09:07:51.916Z,101905.77
2019-05-22T09:10:25.793Z,101904.92
2019-05-22T09:12:53.305Z,101910.11
2019-05-22T09:15:23.602Z,101912.34
2019-05-22T09:17:53.477Z,101915.78
2019-05-22T09:20:23.083Z,101908.80
2019-05-22T09:22:52.859Z,101914.18
2019-05-22T09:25:22.194Z,101913.38
2019-05-22T09:27:51.872Z,101899.38
2019-05-22T09:30:21.709Z,101902.99
2019-05-22T09:32:51.364Z,101901.73
2019-05-22T09:35:21.279Z,101902.20
2019-05-22T09:37:50.994Z,101901.23
2019-05-22T09:40:20.851Z,101897.77
2019-05-22T09:42:50.263Z,101894.75
2019-05-22T09:45:20.209Z,101895.29
2019-05-22T09:47:49.685Z,101895.77
2019-05-22T09:50:19.582Z,101894.53
2019-05-22T09:52:57.589Z,101905.50
2019-05-22T09:55:20.808Z,101906.40
2019-05-22T09:57:50.213Z,101909.95
2019-05-22T10:00:20.560Z,101904.25
2019-05-22T10:02:50.022Z,101910.02
2019-05-22T10:05:19.895Z,101910.04
2019-05-22T10:08:00.411Z,101907.86
2019-05-22T10:10:21.112Z,101911.39
2019-05-22T10:12:50.799Z,101898.67
2019-05-22T10:15:21.268Z,101902.64
2019-05-22T10:17:50.842Z,101900.94
2019-05-22T10:20:20.914Z,101908.02
2019-05-22T10:22:50.313Z,101905.84
2019-05-22T10:25:20.082Z,101908.94
2019-05-22T10:27:49.957Z,101905.42
2019-05-22T10:30:22.644Z,101906.33
2019-05-22T10:32:51.990Z,101915.14
2019-05-22T10:35:27.015Z,101910.75
2019-05-22T10:37:57.167Z,101911.23
2019-05-22T10:40:27.022Z,101916.98
2019-05-22T10:42:57.395Z,101902.46
2019-05-22T10:45:27.530Z,101909.09
2019-05-22T10:47:57.442Z,101901.16
2019-05-22T10:50:27.623Z,101899.81
2019-05-22T10:52:57.422Z,101894.06
2019-05-22T10:55:28.278Z,101894.08
2019-05-22T10:57:58.215Z,101897.13
2019-05-22T11:00:27.626Z,101898.88
2019-05-22T11:02:57.877Z,101890.47
2019-05-22T11:05:27.448Z,101894.37
2019-05-22T11:07:59.138Z,101899.13
2019-05-22T11:10:29.108Z,101899.03
2019-05-22T11:12:59.201Z,101896.75
2019-05-22T11:15:28.944Z,101897.58
2019-05-22T11:17:58.594Z,101899.33
2019-05-22T11:20:28.699Z,101896.92
2019-05-22T11:22:58.046Z,101886.80
2019-05-22T11:25:27.644Z,101895.35
2019-05-22T11:27:56.984Z,101894.97
2019-05-22T11:30:27.051Z,101894.16
2019-05-22T11:32:56.850Z,101902.30
2019-05-22T11:35:27.429Z,101890.37
2019-05-22T11:37:56.939Z,101887.26
2019-05-22T11:40:26.876Z,101890.44
2019-05-22T11:42:57.629Z,101888.30
2019-05-22T11:45:28.174Z,101886.81
2019-05-22T11:47:57.509Z,101884.85
2019-05-22T11:50:27.692Z,101887.63
2019-05-22T11:52:57.111Z,101886.50
2019-05-22T11:55:42.618Z,101881.75
2019-05-22T11:57:57.657Z,101874.77
2019-05-22T12:00:27.690Z,101869.16
2019-05-22T12:02:57.583Z,101872.37
2019-05-22T12:05:26.906Z,101867.23
2019-05-22T12:07:56.799Z,101863.05
2019-05-22T12:10:26.586Z,101864.86
2019-05-22T12:12:55.988Z,101866.88
2019-05-22T12:15:28.132Z,101865.48
2019-05-22T12:17:57.860Z,101869.09
2019-05-22T12:20:29.240Z,101868.94
2019-05-22T12:22:58.778Z,101870.03
2019-05-22T12:25:29.125Z,101872.19
2019-05-22T12:27:58.467Z,101875.38
2019-05-22T12:30:28.429Z,101865.09
2019-05-22T12:32:59.202Z,101872.59
2019-05-22T12:35:29.104Z,101872.57
2019-05-22T12:38:00.196Z,101872.41
2019-05-22T12:40:33.750Z,101873.55
2019-05-22T12:43:03.381Z,101868.65
2019-05-22T12:45:33.409Z,101866.41
2019-05-22T12:48:04.078Z,101872.20
2019-05-22T12:50:34.554Z,101866.80
2019-05-22T12:53:06.767Z,101857.95
2019-05-22T12:55:36.668Z,101858.37
2019-05-22T12:58:06.725Z,101861.20
2019-05-22T13:00:36.390Z,101852.08
2019-05-22T13:03:07.433Z,101856.83
2019-05-22T13:05:39.425Z,101857.96
2019-05-22T13:08:09.359Z,101853.34
2019-05-22T13:10:39.398Z,101853.66
2019-05-22T13:13:08.897Z,101858.59
2019-05-22T13:15:39.381Z,101847.61
2019-05-22T13:18:10.631Z,101848.16
2019-05-22T13:20:44.977Z,101845.20
2019-05-22T13:23:17.567Z,101846.24
2019-05-22T13:25:47.263Z,101854.05
2019-05-22T13:28:18.942Z,101847.42
2019-05-22T13:30:52.691Z,101844.02
2019-05-22T13:33:26.576Z,101843.69
2019-05-22T13:35:57.735Z,101837.72
2019-05-22T13:38:28.734Z,101837.75
2019-05-22T13:40:58.573Z,101844.39
2019-05-22T13:43:28.830Z,101832.88
2019-05-22T13:45:59.276Z,101837.98
2019-05-22T13:48:30.215Z,101830.45
2019-05-22T13:51:00.397Z,101831.92
2019-05-22T13:53:31.929Z,101832.17
2019-05-22T13:56:01.410Z,101835.17
2019-05-22T13:58:30.857Z,101837.30
2019-05-22T14:01:00.659Z,101830.55
2019-05-22T14:03:30.591Z,101829.59
2019-05-22T14:06:00.354Z,101830.50
2019-05-22T14:08:29.919Z,101832.61
2019-05-22T14:11:00.374Z,101824.77
2019-05-22T14:13:30.853Z,101820.08
2019-05-22T14:16:00.263Z,101829.39
2019-05-22T14:18:29.885Z,101821.22
2019-05-22T14:20:59.496Z,101829.86
2019-05-22T14:23:29.963Z,101821.09
2019-05-22T14:25:59.500Z,101823.70
2019-05-22T14:28:30.850Z,101820.37
2019-05-22T14:31:00.549Z,101820.75
2019-05-22T14:33:30.282Z,101812.72
2019-05-22T14:36:00.967Z,101820.82
2019-05-22T14:38:30.292Z,101820.82
2019-05-22T14:41:00.578Z,101810.84
2019-05-22T14:43:30.097Z,101817.67
2019-05-22T14:45:59.449Z,101796.32
2019-05-22T14:48:29.148Z,101796.32
2019-05-22T14:50:59.477Z,101823.94
2019-05-22T14:53:29.723Z,101815.48
2019-05-22T14:56:01.439Z,101815.16
2019-05-22T14:58:31.622Z,101815.16
2019-05-22T15:01:01.019Z,101814.88
2019-05-22T15:03:30.892Z,101813.59
2019-05-22T15:06:00.489Z,101808.35
2019-05-22T15:08:29.964Z,101817.16
2019-05-22T15:10:59.775Z,101812.64
2019-05-22T15:13:29.530Z,101806.22
2019-05-22T15:15:58.880Z,101804.45
2019-05-22T15:18:28.943Z,101802.67
2019-05-22T15:21:09.448Z,101797.42
2019-05-22T15:23:39.542Z,101798.04
2019-05-22T15:26:09.672Z,101793.97
2019-05-22T15:28:40.209Z,101795.06
2019-05-22T15:31:09.703Z,101792.70
2019-05-22T15:33:40.668Z,101785.52
2019-05-22T15:36:13.644Z,101791.61
2019-05-22T15:38:44.884Z,101792.67
2019-05-22T15:41:14.482Z,101787.45
2019-05-22T15:43:50.391Z,101788.91
2019-05-22T15:46:18.577Z,101783.78
2019-05-22T15:48:48.832Z,101786.81
2019-05-22T15:51:21.240Z,101789.16
2019-05-22T15:53:52.078Z,101780.53
2019-05-22T15:56:21.876Z,101783.75
2019-05-22T15:58:54.661Z,101781.08
2019-05-22T16:01:25.603Z,101778.57
2019-05-22T16:03:56.767Z,101779.42
2019-05-22T16:06:29.515Z,101783.86
2019-05-22T16:08:59.682Z,101780.69
2019-05-22T16:11:31.627Z,101777.75
2019-05-22T16:14:03.306Z,101775.53
2019-05-22T16:16:34.620Z,101772.31
2019-05-22T16:19:07.555Z,101781.47
2019-05-22T16:21:40.208Z,101777.44
2019-05-22T16:24:10.574Z,101781.39
2019-05-22T16:26:41.106Z,101781.97
2019-05-22T16:29:10.882Z,101775.03
2019-05-22T16:31:42.731Z,101773.22
2019-05-22T16:34:12.492Z,101781.72
2019-05-22T16:36:44.894Z,101776.95
2019-05-22T16:39:15.535Z,101767.28
2019-05-22T16:41:46.182Z,101765.95
2019-05-22T16:44:16.450Z,101765.33
2019-05-22T16:46:48.564Z,101762.71
2019-05-22T16:49:17.962Z,101761.98
2019-05-22T16:51:48.540Z,101762.67
2019-05-22T16:54:20.887Z,101766.78
2019-05-22T16:56:50.326Z,101767.80
2019-05-22T16:59:20.170Z,101768.86
2019-05-22T17:01:59.859Z,101761.86
2019-05-22T17:04:21.179Z,101766.46
2019-05-22T17:06:51.554Z,101763.48
2019-05-22T17:09:21.757Z,101767.27
2019-05-22T17:11:52.513Z,101767.00
2019-05-22T17:14:23.891Z,101763.59
2019-05-22T17:16:53.572Z,101761.59
2019-05-22T17:19:27.516Z,101759.58
2019-05-22T17:21:55.140Z,101759.32
2019-05-22T17:24:24.941Z,101758.11
2019-05-22T17:26:56.018Z,101761.37
2019-05-22T17:29:26.379Z,101760.17
2019-05-22T17:31:56.265Z,101763.89
2019-05-22T17:34:31.832Z,101757.59
2019-05-22T17:37:06.233Z,101756.27
2019-05-22T17:39:38.171Z,101763.51
2019-05-22T17:42:10.518Z,101762.17
2019-05-22T17:44:43.192Z,101764.11
2019-05-22T17:47:13.525Z,101760.65
2019-05-22T17:49:43.321Z,101761.70
2019-05-22T17:52:14.572Z,101756.38
2019-05-22T17:54:45.146Z,101764.95
2019-05-22T17:57:15.313Z,101768.61
2019-05-22T17:59:44.656Z,101774.00
2019-05-22T18:02:16.138Z,101764.48
2019-05-22T18:04:45.801Z,101767.67
2019-05-22T18:07:15.498Z,101763.48
2019-05-22T18:09:45.078Z,101765.37
2019-05-22T18:12:15.007Z,101761.08
2019-05-22T18:14:45.317Z,101767.45
2019-05-22T18:17:15.385Z,101759.20
2019-05-22T18:19:44.981Z,101765.62
2019-05-22T18:22:16.317Z,101764.81
2019-05-22T18:24:46.426Z,101767.15
2019-05-22T18:27:15.763Z,101758.80
2019-05-22T18:29:45.093Z,101758.95
2019-05-22T18:32:14.424Z,101762.63
2019-05-22T18:34:43.783Z,101760.94
2019-05-22T18:37:13.184Z,101761.57
2019-05-22T18:39:42.512Z,101763.45
2019-05-22T18:42:12.588Z,101761.34
2019-05-22T18:44:41.919Z,101763.26
2019-05-22T18:47:11.824Z,101768.30
2019-05-22T18:49:41.223Z,101771.09
2019-05-22T18:52:11.324Z,101768.97
2019-05-22T18:54:40.719Z,101771.79
2019-05-22T18:57:10.735Z,101772.44
2019-05-22T18:59:40.341Z,101773.95
2019-05-22T19:02:09.672Z,101766.23
2019-05-22T19:04:40.278Z,101778.33
2019-05-22T19:07:10.063Z,101774.94
2019-05-22T19:09:39.572Z,101782.58
2019-05-22T19:12:09.048Z,101776.97
2019-05-22T19:14:38.368Z,101778.42
2019-05-22T19:17:08.122Z,101786.02
2019-05-22T19:19:38.391Z,101788.33
2019-05-22T19:22:07.966Z,101789.76
2019-05-22T19:24:37.434Z,101789.86
2019-05-22T19:27:06.850Z,101793.06
2019-05-22T19:29:36.285Z,101793.18
2019-05-22T19:32:06.047Z,101800.75
2019-05-22T19:34:35.379Z,101804.34
2019-05-22T19:37:04.779Z,101799.95
2019-05-22T19:39:34.883Z,101801.79
2019-05-22T19:42:05.754Z,101805.84
2019-05-22T19:44:35.513Z,101811.22
2019-05-22T19:47:06.791Z,101813.91
2019-05-22T19:49:36.117Z,101810.43
2019-05-22T19:52:07.665Z,101813.53
2019-05-22T19:54:38.340Z,101815.77
2019-05-22T19:57:09.014Z,101817.13
2019-05-22T19:59:38.357Z,101822.88
2019-05-22T20:02:09.714Z,101826.86
2019-05-22T20:04:39.115Z,101826.87
2019-05-22T20:07:09.404Z,101826.02
2019-05-22T20:09:39.383Z,101827.80
2019-05-22T20:12:11.770Z,101823.43
2019-05-22T20:14:41.111Z,101826.98
2019-05-22T20:17:10.715Z,101826.53
2019-05-22T20:19:40.564Z,101832.28
2019-05-22T20:22:10.237Z,101831.84
2019-05-22T20:24:39.638Z,101827.44
2019-05-22T20:27:10.230Z,101835.38
2019-05-22T20:29:41.187Z,101830.53
2019-05-22T20:32:13.926Z,101840.69
2019-05-22T20:34:43.711Z,101838.94
2019-05-22T20:37:13.216Z,101844.22
2019-05-22T20:39:42.563Z,101838.94
2019-05-22T20:42:12.084Z,101840.27
2019-05-22T20:44:42.330Z,101836.75
2019-05-22T20:47:11.740Z,101836.75
2019-05-22T20:49:43.360Z,101839.84
2019-05-22T20:52:14.315Z,101833.24
2019-05-22T20:54:44.997Z,101835.48
2019-05-22T20:57:19.575Z,101839.44
2019-05-22T20:59:47.685Z,101840.33
2019-05-22T21:02:19.736Z,101844.73
2019-05-22T21:04:51.413Z,101842.53
2019-05-22T21:07:26.527Z,101842.09
2019-05-22T21:09:57.372Z,101850.00
2019-05-22T21:12:27.345Z,101852.67
2019-05-22T21:14:57.342Z,101853.09
2019-05-22T21:17:28.488Z,101855.70
2019-05-22T21:19:59.589Z,101853.48
2019-05-22T21:22:29.410Z,101860.51
2019-05-22T21:24:59.774Z,101857.86
2019-05-22T21:27:30.414Z,101853.86
2019-05-22T21:29:59.828Z,101862.22
2019-05-22T21:32:29.869Z,101861.75
2019-05-22T21:34:59.591Z,101857.34
2019-05-22T21:37:29.314Z,101858.18
2019-05-22T21:39:59.206Z,101864.73
2019-05-22T21:42:30.267Z,101859.82
2019-05-22T21:44:59.974Z,101867.29
2019-05-22T21:47:29.586Z,101860.19
2019-05-22T21:49:59.007Z,101862.77
2019-05-22T21:52:28.495Z,101855.22
2019-05-22T21:54:58.875Z,101860.00
2019-05-22T21:57:28.559Z,101859.95
2019-05-22T21:59:57.899Z,101865.16
2019-05-22T22:02:31.929Z,101863.78
2019-05-22T22:05:01.333Z,101872.52
2019-05-22T22:07:30.741Z,101864.13
2019-05-22T22:10:00.416Z,101867.58
2019-05-22T22:12:30.020Z,101871.46
2019-05-22T22:14:59.929Z,101877.10
2019-05-22T22:17:30.619Z,101876.63
2019-05-22T22:20:01.289Z,101877.43
2019-05-22T22:22:31.355Z,101884.85
2019-05-22T22:25:01.624Z,101884.34
2019-05-22T22:27:31.388Z,101879.06
2019-05-22T22:30:02.623Z,101883.02
2019-05-22T22:32:33.312Z,101882.53
2019-05-22T22:35:02.921Z,101884.73
2019-05-22T22:37:32.637Z,101882.97
2019-05-22T22:40:02.520Z,101881.17
2019-05-22T22:42:36.834Z,101883.77
2019-05-22T22:45:08.849Z,101884.12
2019-05-22T22:47:39.452Z,101885.38
2019-05-22T22:50:09.947Z,101886.17
2019-05-22T22:52:40.635Z,101890.91
2019-05-22T22:55:13.052Z,101892.58
2019-05-22T22:57:42.652Z,101883.27
2019-05-22T23:00:15.599Z,101889.36
2019-05-22T23:02:46.361Z,101887.11
2019-05-22T23:05:16.839Z,101883.50
2019-05-22T23:07:48.593Z,101885.64
2019-05-22T23:10:20.182Z,101882.47
2019-05-22T23:12:51.044Z,101883.23
2019-05-22T23:15:21.710Z,101877.86
2019-05-22T23:17:53.041Z,101878.23
2019-05-22T23:20:21.459Z,101882.52
2019-05-22T23:22:49.680Z,101873.25
2019-05-22T23:25:19.933Z,101864.41
2019-05-22T23:27:50.849Z,101873.50
2019-05-22T23:30:21.021Z,101874.73
2019-05-22T23:32:52.539Z,101879.45
2019-05-22T23:35:22.788Z,101876.31
2019-05-22T23:37:52.393Z,101874.88
2019-05-22T23:40:31.016Z,101877.87
2019-05-22T23:43:01.881Z,101879.99
2019-05-22T23:45:31.284Z,101882.50
2019-05-22T23:48:05.308Z,101882.00
2019-05-22T23:50:38.009Z,101876.66
2019-05-22T23:53:08.738Z,101877.86
2019-05-22T23:55:40.763Z,101874.67
2019-05-22T23:58:12.223Z,101876.34
